sensor_id;sensor_type;location;lat;lon;timestamp;pressure;altitude;pressure_sealevel;temperature;humidity
5812;BME280;2932;52.400;9.558;2023-01-31T00:00:11;101302.97;;;6.72;76.04
5812;BME280;2932;52.400;9.558;2023-01-31T00:02:37;101301.38;;;6.98;75.77
5812;BME280;2932;52.400;9.558;2023-01-31T00:05:02;101302.28;;;7.07;75.17
5812;BME280;2932;52.400;9.558;2023-01-31T00:07:27;101301.66;;;6.69;76.06
5812;BME280;2932;52.400;9.558;2023-01-31T00:09:53;101309.38;;;6.67;76.19
5812;BME280;2932;52.400;9.558;2023-01-31T00:12:18;101309.59;;;6.84;76.00
5812;BME280;2932;52.400;9.558;2023-01-31T00:14:43;101313.66;;;6.59;76.22
5812;BME280;2932;52.400;9.558;2023-01-31T00:17:09;101314.59;;;6.68;75.23
5812;BME280;2932;52.400;9.558;2023-01-31T00:19:34;101304.06;;;6.57;75.15
5812;BME280;2932;52.400;9.558;2023-01-31T00:21:59;101326.88;;;6.57;75.05
5812;BME280;2932;52.400;9.558;2023-01-31T00:24:25;101300.81;;;6.82;74.24
5812;BME280;2932;52.400;9.558;2023-01-31T00:26:50;101303.69;;;6.77;74.91
5812;BME280;2932;52.400;9.558;2023-01-31T00:29:24;101309.19;;;6.63;75.44
5812;BME280;2932;52.400;9.558;2023-01-31T00:31:50;101300.31;;;6.80;76.20
5812;BME280;2932;52.400;9.558;2023-01-31T00:34:16;101292.69;;;6.63;76.63
5812;BME280;2932;52.400;9.558;2023-01-31T00:36:41;101293.59;;;6.59;76.98
5812;BME280;2932;52.400;9.558;2023-01-31T00:39:07;101308.53;;;6.53;76.93
5812;BME280;2932;52.400;9.558;2023-01-31T00:41:34;101308.97;;;6.60;76.93
5812;BME280;2932;52.400;9.558;2023-01-31T00:44:00;101317.22;;;6.60;76.99
5812;BME280;2932;52.400;9.558;2023-01-31T00:46:26;101327.34;;;6.78;76.94
5812;BME280;2932;52.400;9.558;2023-01-31T00:48:52;101329.22;;;6.64;77.90
5812;BME280;2932;52.400;9.558;2023-01-31T00:51:19;101337.53;;;6.45;79.09
5812;BME280;2932;52.400;9.558;2023-01-31T00:53:45;101346.81;;;6.49;79.33
5812;BME280;2932;52.400;9.558;2023-01-31T00:56:13;101344.28;;;6.53;79.81
5812;BME280;2932;52.400;9.558;2023-01-31T00:58:39;101338.25;;;6.51;80.27
5812;BME280;2932;52.400;9.558;2023-01-31T01:03:34;101343.31;;;6.44;80.27
5812;BME280;2932;52.400;9.558;2023-01-31T01:06:00;101338.94;;;6.75;79.72
5812;BME280;2932;52.400;9.558;2023-01-31T01:08:25;101344.56;;;6.97;79.75
5812;BME280;2932;52.400;9.558;2023-01-31T01:10:50;101347.28;;;6.70;79.37
5812;BME280;2932;52.400;9.558;2023-01-31T01:13:16;101341.66;;;6.61;79.70
5812;BME280;2932;52.400;9.558;2023-01-31T01:15:41;101338.78;;;6.53;80.19
5812;BME280;2932;52.400;9.558;2023-01-31T01:18:06;101344.19;;;6.58;79.57
5812;BME280;2932;52.400;9.558;2023-01-31T01:20:33;101339.72;;;6.62;79.33
5812;BME280;2932;52.400;9.558;2023-01-31T01:22:59;101352.38;;;6.44;79.55
5812;BME280;2932;52.400;9.558;2023-01-31T01:25:24;101358.78;;;6.72;79.11
5812;BME280;2932;52.400;9.558;2023-01-31T01:27:50;101359.94;;;6.52;79.29
5812;BME280;2932;52.400;9.558;2023-01-31T01:30:15;101361.53;;;6.72;78.51
5812;BME280;2932;52.400;9.558;2023-01-31T01:32:41;101357.81;;;6.49;79.04
5812;BME280;2932;52.400;9.558;2023-01-31T01:35:06;101364.47;;;6.62;78.60
5812;BME280;2932;52.400;9.558;2023-01-31T01:37:32;101364.47;;;6.62;78.57
5812;BME280;2932;52.400;9.558;2023-01-31T01:39:57;101370.69;;;6.67;78.49
5812;BME280;2932;52.400;9.558;2023-01-31T01:42:24;101368.16;;;6.85;77.72
5812;BME280;2932;52.400;9.558;2023-01-31T01:44:55;101367.56;;;6.74;78.12
5812;BME280;2932;52.400;9.558;2023-01-31T01:47:32;101368.53;;;6.64;78.49
5812;BME280;2932;52.400;9.558;2023-01-31T01:55:18;101391.88;;;6.67;78.41
5812;BME280;2932;52.400;9.558;2023-01-31T01:57:46;101389.56;;;6.74;78.39
5812;BME280;2932;52.400;9.558;2023-01-31T02:00:23;101385.94;;;6.60;78.25
5812;BME280;2932;52.400;9.558;2023-01-31T02:02:52;101398.94;;;6.73;78.20
5812;BME280;2932;52.400;9.558;2023-01-31T02:05:23;101390.41;;;6.56;78.47
5812;BME280;2932;52.400;9.558;2023-01-31T02:07:50;101391.25;;;7.02;77.61
5812;BME280;2932;52.400;9.558;2023-01-31T02:10:23;101400.88;;;6.86;77.56
5812;BME280;2932;52.400;9.558;2023-01-31T02:12:51;101394.06;;;6.51;78.79
5812;BME280;2932;52.400;9.558;2023-01-31T02:15:16;101387.50;;;6.66;78.66
5812;BME280;2932;52.400;9.558;2023-01-31T02:17:42;101392.78;;;6.62;79.27
5812;BME280;2932;52.400;9.558;2023-01-31T02:39:14;101391.34;;;6.32;80.28
5812;BME280;2932;52.400;9.558;2023-01-31T02:41:51;101396.25;;;6.35;80.90
5812;BME280;2932;52.400;9.558;2023-01-31T02:44:27;101396.63;;;6.29;80.91
5812;BME280;2932;52.400;9.558;2023-01-31T02:50:03;101407.50;;;6.53;80.01
5812;BME280;2932;52.400;9.558;2023-01-31T02:52:38;101412.06;;;6.76;79.20
5812;BME280;2932;52.400;9.558;2023-01-31T02:57:50;101396.53;;;6.34;80.34
5812;BME280;2932;52.400;9.558;2023-01-31T03:00:17;101396.16;;;6.22;80.54
5812;BME280;2932;52.400;9.558;2023-01-31T03:02:44;101415.69;;;6.20;80.55
5812;BME280;2932;52.400;9.558;2023-01-31T03:05:16;101414.22;;;6.28;80.40
5812;BME280;2932;52.400;9.558;2023-01-31T03:07:46;101413.56;;;6.36;79.88
5812;BME280;2932;52.400;9.558;2023-01-31T03:18:22;101400.34;;;6.38;80.22
5812;BME280;2932;52.400;9.558;2023-01-31T03:20:59;101393.28;;;6.13;80.19
5812;BME280;2932;52.400;9.558;2023-01-31T03:23:28;101388.75;;;6.22;80.29
5812;BME280;2932;52.400;9.558;2023-01-31T03:25:57;101391.31;;;6.51;79.57
5812;BME280;2932;52.400;9.558;2023-01-31T03:28:30;101380.72;;;6.26;79.15
5812;BME280;2932;52.400;9.558;2023-01-31T03:33:45;101361.41;;;6.12;79.35
5812;BME280;2932;52.400;9.558;2023-01-31T03:36:27;101373.03;;;6.42;78.98
5812;BME280;2932;52.400;9.558;2023-01-31T03:41:52;101365.28;;;6.30;78.23
5812;BME280;2932;52.400;9.558;2023-01-31T03:46:51;101369.44;;;6.60;77.16
5812;BME280;2932;52.400;9.558;2023-01-31T03:49:19;101364.53;;;6.06;78.44
5812;BME280;2932;52.400;9.558;2023-01-31T03:51:50;101365.72;;;6.37;77.72
5812;BME280;2932;52.400;9.558;2023-01-31T03:54:20;101371.53;;;5.98;78.58
5812;BME280;2932;52.400;9.558;2023-01-31T03:56:56;101369.91;;;5.97;78.76
5812;BME280;2932;52.400;9.558;2023-01-31T03:59:31;101380.38;;;5.95;79.03
5812;BME280;2932;52.400;9.558;2023-01-31T04:02:00;101371.88;;;6.29;77.36
5812;BME280;2932;52.400;9.558;2023-01-31T04:04:47;101361.94;;;6.14;78.01
5812;BME280;2932;52.400;9.558;2023-01-31T04:07:15;101362.38;;;6.21;77.80
5812;BME280;2932;52.400;9.558;2023-01-31T04:09:42;101366.63;;;5.95;78.43
5812;BME280;2932;52.400;9.558;2023-01-31T04:12:11;101353.31;;;6.02;78.41
5812;BME280;2932;52.400;9.558;2023-01-31T04:14:37;101359.78;;;6.11;78.02
5812;BME280;2932;52.400;9.558;2023-01-31T04:17:02;101361.44;;;5.93;78.52
5812;BME280;2932;52.400;9.558;2023-01-31T04:19:28;101364.63;;;6.19;78.07
5812;BME280;2932;52.400;9.558;2023-01-31T04:21:53;101365.34;;;6.06;77.98
5812;BME280;2932;52.400;9.558;2023-01-31T04:24:18;101372.34;;;6.17;77.46
5812;BME280;2932;52.400;9.558;2023-01-31T04:26:44;101372.19;;;6.27;77.62
5812;BME280;2932;52.400;9.558;2023-01-31T04:29:09;101370.56;;;6.26;77.62
5812;BME280;2932;52.400;9.558;2023-01-31T04:31:34;101369.44;;;6.27;77.65
5812;BME280;2932;52.400;9.558;2023-01-31T04:34:00;101372.63;;;6.16;77.41
5812;BME280;2932;52.400;9.558;2023-01-31T04:36:25;101367.00;;;6.07;77.69
5812;BME280;2932;52.400;9.558;2023-01-31T04:38:51;101375.47;;;6.43;76.85
5812;BME280;2932;52.400;9.558;2023-01-31T04:41:16;101381.28;;;6.42;76.30
5812;BME280;2932;52.400;9.558;2023-01-31T04:43:41;101363.66;;;6.29;76.44
5812;BME280;2932;52.400;9.558;2023-01-31T04:46:07;101376.41;;;6.01;77.70
5812;BME280;2932;52.400;9.558;2023-01-31T04:48:32;101383.25;;;6.22;77.55
5812;BME280;2932;52.400;9.558;2023-01-31T04:50:58;101379.69;;;5.60;78.94
5812;BME280;2932;52.400;9.558;2023-01-31T04:53:23;101385.03;;;5.94;78.59
5812;BME280;2932;52.400;9.558;2023-01-31T04:55:48;101377.38;;;5.25;79.65
5812;BME280;2932;52.400;9.558;2023-01-31T04:58:13;101378.56;;;5.61;79.51
5812;BME280;2932;52.400;9.558;2023-01-31T05:00:39;101371.09;;;5.67;79.16
5812;BME280;2932;52.400;9.558;2023-01-31T05:03:04;101375.13;;;5.75;78.36
5812;BME280;2932;52.400;9.558;2023-01-31T05:05:31;101382.28;;;6.13;77.67
5812;BME280;2932;52.400;9.558;2023-01-31T05:07:57;101380.88;;;5.54;78.50
5812;BME280;2932;52.400;9.558;2023-01-31T05:10:22;101370.91;;;6.01;77.81
5812;BME280;2932;52.400;9.558;2023-01-31T05:12:47;101381.19;;;5.72;78.21
5812;BME280;2932;52.400;9.558;2023-01-31T05:15:13;101381.78;;;5.68;78.63
5812;BME280;2932;52.400;9.558;2023-01-31T05:17:38;101396.09;;;5.65;78.44
5812;BME280;2932;52.400;9.558;2023-01-31T05:20:05;101384.00;;;5.90;78.31
5812;BME280;2932;52.400;9.558;2023-01-31T05:22:30;101377.16;;;6.07;77.59
5812;BME280;2932;52.400;9.558;2023-01-31T05:24:55;101367.06;;;6.02;77.39
5812;BME280;2932;52.400;9.558;2023-01-31T05:29:46;101361.69;;;5.73;77.96
5812;BME280;2932;52.400;9.558;2023-01-31T05:32:12;101383.16;;;6.09;77.51
5812;BME280;2932;52.400;9.558;2023-01-31T05:34:39;101367.81;;;6.26;77.20
5812;BME280;2932;52.400;9.558;2023-01-31T05:37:04;101369.50;;;6.22;77.06
5812;BME280;2932;52.400;9.558;2023-01-31T05:39:30;101357.88;;;5.93;77.90
5812;BME280;2932;52.400;9.558;2023-01-31T05:41:55;101346.59;;;5.94;78.14
5812;BME280;2932;52.400;9.558;2023-01-31T05:44:21;101350.38;;;5.98;78.00
5812;BME280;2932;52.400;9.558;2023-01-31T05:46:47;101340.91;;;5.86;77.97
5812;BME280;2932;52.400;9.558;2023-01-31T05:49:13;101354.75;;;5.99;78.29
5812;BME280;2932;52.400;9.558;2023-01-31T05:51:39;101345.91;;;6.21;77.86
5812;BME280;2932;52.400;9.558;2023-01-31T05:54:05;101342.34;;;6.02;78.01
5812;BME280;2932;52.400;9.558;2023-01-31T05:56:31;101347.09;;;6.15;77.62
5812;BME280;2932;52.400;9.558;2023-01-31T05:58:56;101330.81;;;6.19;77.42
5812;BME280;2932;52.400;9.558;2023-01-31T06:01:25;101332.16;;;6.54;76.82
5812;BME280;2932;52.400;9.558;2023-01-31T06:03:51;101327.72;;;5.88;77.91
5812;BME280;2932;52.400;9.558;2023-01-31T06:06:16;101331.69;;;6.33;77.54
5812;BME280;2932;52.400;9.558;2023-01-31T06:08:42;101324.34;;;6.28;77.14
5812;BME280;2932;52.400;9.558;2023-01-31T06:11:09;101331.41;;;6.34;76.29
5812;BME280;2932;52.400;9.558;2023-01-31T06:13:38;101320.91;;;6.69;76.10
5812;BME280;2932;52.400;9.558;2023-01-31T06:16:05;101336.50;;;6.41;76.62
5812;BME280;2932;52.400;9.558;2023-01-31T06:18:30;101321.50;;;6.66;75.96
5812;BME280;2932;52.400;9.558;2023-01-31T06:20:56;101326.81;;;6.76;75.56
5812;BME280;2932;52.400;9.558;2023-01-31T06:23:21;101331.38;;;6.67;75.75
5812;BME280;2932;52.400;9.558;2023-01-31T06:25:51;101329.59;;;7.03;74.86
5812;BME280;2932;52.400;9.558;2023-01-31T06:28:17;101335.69;;;6.73;75.25
5812;BME280;2932;52.400;9.558;2023-01-31T06:30:42;101331.00;;;6.74;74.99
5812;BME280;2932;52.400;9.558;2023-01-31T06:33:08;101321.25;;;6.49;75.85
5812;BME280;2932;52.400;9.558;2023-01-31T06:35:34;101323.47;;;6.79;75.03
5812;BME280;2932;52.400;9.558;2023-01-31T06:37:59;101327.63;;;6.90;74.87
5812;BME280;2932;52.400;9.558;2023-01-31T06:40:24;101322.75;;;7.01;74.75
5812;BME280;2932;52.400;9.558;2023-01-31T06:42:50;101307.97;;;6.69;75.37
5812;BME280;2932;52.400;9.558;2023-01-31T06:45:16;101315.84;;;7.03;74.87
5812;BME280;2932;52.400;9.558;2023-01-31T06:47:43;101312.44;;;6.65;75.96
5812;BME280;2932;52.400;9.558;2023-01-31T06:50:10;101304.31;;;6.42;76.56
5812;BME280;2932;52.400;9.558;2023-01-31T06:52:35;101304.63;;;6.73;76.22
5812;BME280;2932;52.400;9.558;2023-01-31T06:55:01;101305.97;;;7.16;75.37
5812;BME280;2932;52.400;9.558;2023-01-31T06:57:26;101300.84;;;6.68;75.92
5812;BME280;2932;52.400;9.558;2023-01-31T06:59:51;101295.22;;;6.60;77.16
5812;BME280;2932;52.400;9.558;2023-01-31T07:02:17;101297.19;;;6.41;78.07
5812;BME280;2932;52.400;9.558;2023-01-31T07:04:42;101283.72;;;6.72;76.82
5812;BME280;2932;52.400;9.558;2023-01-31T07:07:07;101286.19;;;6.73;77.40
5812;BME280;2932;52.400;9.558;2023-01-31T07:09:33;101279.88;;;6.73;76.83
5812;BME280;2932;52.400;9.558;2023-01-31T07:11:58;101284.25;;;7.15;76.67
5812;BME280;2932;52.400;9.558;2023-01-31T07:14:23;101267.81;;;6.82;77.45
5812;BME280;2932;52.400;9.558;2023-01-31T07:16:49;101267.63;;;6.92;76.82
5812;BME280;2932;52.400;9.558;2023-01-31T07:19:14;101270.91;;;7.08;76.11
5812;BME280;2932;52.400;9.558;2023-01-31T07:21:39;101257.25;;;7.17;75.72
5812;BME280;2932;52.400;9.558;2023-01-31T07:24:05;101244.19;;;6.81;77.03
5812;BME280;2932;52.400;9.558;2023-01-31T07:26:31;101243.69;;;6.65;77.38
5812;BME280;2932;52.400;9.558;2023-01-31T07:28:56;101246.75;;;7.19;76.88
5812;BME280;2932;52.400;9.558;2023-01-31T07:31:21;101242.56;;;7.08;76.35
5812;BME280;2932;52.400;9.558;2023-01-31T07:33:47;101239.34;;;6.78;77.55
5812;BME280;2932;52.400;9.558;2023-01-31T07:36:14;101231.97;;;6.60;78.58
5812;BME280;2932;52.400;9.558;2023-01-31T07:38:40;101216.50;;;6.50;78.53
5812;BME280;2932;52.400;9.558;2023-01-31T07:41:05;101233.00;;;6.91;78.34
5812;BME280;2932;52.400;9.558;2023-01-31T07:43:33;101223.72;;;7.01;77.76
5812;BME280;2932;52.400;9.558;2023-01-31T07:45:58;101225.72;;;7.23;77.15
5812;BME280;2932;52.400;9.558;2023-01-31T07:48:23;101235.22;;;7.17;76.96
5812;BME280;2932;52.400;9.558;2023-01-31T07:50:57;101228.41;;;7.00;77.21
5812;BME280;2932;52.400;9.558;2023-01-31T07:53:23;101224.25;;;6.76;78.32
5812;BME280;2932;52.400;9.558;2023-01-31T07:55:49;101215.78;;;6.99;77.59
5812;BME280;2932;52.400;9.558;2023-01-31T07:58:15;101224.56;;;6.74;78.36
5812;BME280;2932;52.400;9.558;2023-01-31T08:00:43;101200.63;;;6.61;77.97
5812;BME280;2932;52.400;9.558;2023-01-31T08:03:28;101213.03;;;6.86;78.12
5812;BME280;2932;52.400;9.558;2023-01-31T08:06:30;101195.53;;;6.68;78.39
5812;BME280;2932;52.400;9.558;2023-01-31T08:08:49;101180.22;;;7.03;76.54
5812;BME280;2932;52.400;9.558;2023-01-31T08:11:14;101184.72;;;7.35;76.13
5812;BME280;2932;52.400;9.558;2023-01-31T08:13:40;101172.31;;;7.24;75.52
5812;BME280;2932;52.400;9.558;2023-01-31T08:16:07;101173.75;;;7.21;76.07
5812;BME280;2932;52.400;9.558;2023-01-31T08:18:34;101161.09;;;7.56;74.90
5812;BME280;2932;52.400;9.558;2023-01-31T08:20:59;101182.47;;;7.37;75.46
5812;BME280;2932;52.400;9.558;2023-01-31T08:23:26;101170.84;;;7.40;75.91
5812;BME280;2932;52.400;9.558;2023-01-31T08:25:52;101160.69;;;7.72;74.46
5812;BME280;2932;52.400;9.558;2023-01-31T08:28:17;101190.63;;;7.42;75.08
5812;BME280;2932;52.400;9.558;2023-01-31T08:30:43;101156.56;;;7.16;76.31
5812;BME280;2932;52.400;9.558;2023-01-31T08:33:10;101172.28;;;7.01;76.42
5812;BME280;2932;52.400;9.558;2023-01-31T08:35:36;101157.56;;;7.42;75.77
5812;BME280;2932;52.400;9.558;2023-01-31T08:38:02;101148.06;;;7.48;75.32
5812;BME280;2932;52.400;9.558;2023-01-31T08:40:28;101151.91;;;7.25;75.93
5812;BME280;2932;52.400;9.558;2023-01-31T08:42:54;101154.66;;;7.02;76.38
5812;BME280;2932;52.400;9.558;2023-01-31T08:45:20;101149.72;;;7.13;76.19
5812;BME280;2932;52.400;9.558;2023-01-31T08:47:45;101159.66;;;7.23;75.50
5812;BME280;2932;52.400;9.558;2023-01-31T08:50:10;101135.28;;;7.30;75.97
5812;BME280;2932;52.400;9.558;2023-01-31T08:52:36;101126.72;;;7.31;76.02
5812;BME280;2932;52.400;9.558;2023-01-31T08:55:01;101123.03;;;7.36;75.57
5812;BME280;2932;52.400;9.558;2023-01-31T08:57:27;101121.72;;;7.11;75.46
5812;BME280;2932;52.400;9.558;2023-01-31T08:59:53;101129.22;;;7.19;75.69
5812;BME280;2932;52.400;9.558;2023-01-31T09:02:19;101118.28;;;7.50;75.35
5812;BME280;2932;52.400;9.558;2023-01-31T09:04:45;101117.28;;;7.46;74.78
5812;BME280;2932;52.400;9.558;2023-01-31T09:07:10;101104.63;;;7.23;75.28
5812;BME280;2932;52.400;9.558;2023-01-31T09:09:35;101109.09;;;6.96;76.38
5812;BME280;2932;52.400;9.558;2023-01-31T09:12:02;101112.78;;;6.92;76.66
5812;BME280;2932;52.400;9.558;2023-01-31T09:14:28;101119.78;;;7.12;77.27
5812;BME280;2932;52.400;9.558;2023-01-31T09:16:54;101105.63;;;7.27;76.73
5812;BME280;2932;52.400;9.558;2023-01-31T09:19:20;101102.19;;;7.21;77.16
5812;BME280;2932;52.400;9.558;2023-01-31T09:21:46;101100.38;;;7.39;76.62
5812;BME280;2932;52.400;9.558;2023-01-31T09:24:11;101114.16;;;7.39;76.96
5812;BME280;2932;52.400;9.558;2023-01-31T09:26:37;101109.69;;;7.07;78.46
5812;BME280;2932;52.400;9.558;2023-01-31T09:29:02;101090.63;;;7.11;78.65
5812;BME280;2932;52.400;9.558;2023-01-31T09:31:27;101102.03;;;7.40;79.34
5812;BME280;2932;52.400;9.558;2023-01-31T09:33:54;101094.50;;;6.74;81.21
5812;BME280;2932;52.400;9.558;2023-01-31T09:36:21;101087.69;;;6.71;82.09
5812;BME280;2932;52.400;9.558;2023-01-31T09:38:47;101093.69;;;6.73;82.04
5812;BME280;2932;52.400;9.558;2023-01-31T09:46:39;101093.44;;;6.83;81.85
5812;BME280;2932;52.400;9.558;2023-01-31T09:49:21;101056.97;;;6.91;81.83
5812;BME280;2932;52.400;9.558;2023-01-31T09:51:52;101043.75;;;7.16;81.38
5812;BME280;2932;52.400;9.558;2023-01-31T09:54:24;101049.03;;;7.34;79.75
5812;BME280;2932;52.400;9.558;2023-01-31T10:05:19;101030.63;;;7.75;77.62
5812;BME280;2932;52.400;9.558;2023-01-31T10:08:05;101051.47;;;7.36;77.92
5812;BME280;2932;52.400;9.558;2023-01-31T10:10:40;101039.16;;;7.33;78.56
5812;BME280;2932;52.400;9.558;2023-01-31T10:13:26;101040.97;;;6.93;79.96
5812;BME280;2932;52.400;9.558;2023-01-31T10:16:02;101037.09;;;6.94;79.88
5812;BME280;2932;52.400;9.558;2023-01-31T10:18:38;101018.25;;;7.63;78.27
5812;BME280;2932;52.400;9.558;2023-01-31T10:21:11;101022.44;;;7.52;78.19
5812;BME280;2932;52.400;9.558;2023-01-31T10:23:44;101031.94;;;7.46;78.27
5812;BME280;2932;52.400;9.558;2023-01-31T10:26:16;101014.78;;;7.18;78.79
5812;BME280;2932;52.400;9.558;2023-01-31T10:31:51;101014.63;;;7.23;78.93
5812;BME280;2932;52.400;9.558;2023-01-31T10:34:32;101007.03;;;7.51;78.56
5812;BME280;2932;52.400;9.558;2023-01-31T10:37:15;101007.88;;;7.60;78.40
5812;BME280;2932;52.400;9.558;2023-01-31T10:39:51;101004.16;;;7.65;77.83
5812;BME280;2932;52.400;9.558;2023-01-31T10:42:33;101012.50;;;7.43;78.60
5812;BME280;2932;52.400;9.558;2023-01-31T10:47:43;100990.31;;;7.79;77.80
5812;BME280;2932;52.400;9.558;2023-01-31T10:50:17;100979.19;;;7.53;78.09
5812;BME280;2932;52.400;9.558;2023-01-31T10:52:56;100986.59;;;7.83;77.92
5812;BME280;2932;52.400;9.558;2023-01-31T10:55:31;100968.41;;;7.74;77.69
5812;BME280;2932;52.400;9.558;2023-01-31T10:58:00;100968.38;;;7.56;78.41
5812;BME280;2932;52.400;9.558;2023-01-31T11:00:28;100965.13;;;8.11;77.62
5812;BME280;2932;52.400;9.558;2023-01-31T11:02:56;100958.22;;;7.74;78.19
5812;BME280;2932;52.400;9.558;2023-01-31T11:05:23;100951.97;;;7.51;78.68
5812;BME280;2932;52.400;9.558;2023-01-31T11:07:49;100955.00;;;7.81;77.80
5812;BME280;2932;52.400;9.558;2023-01-31T11:10:27;100946.22;;;7.70;78.24
5812;BME280;2932;52.400;9.558;2023-01-31T11:15:25;100923.09;;;7.88;78.15
5812;BME280;2932;52.400;9.558;2023-01-31T11:17:53;100919.81;;;7.78;77.84
5812;BME280;2932;52.400;9.558;2023-01-31T11:20:25;100929.28;;;7.94;77.96
5812;BME280;2932;52.400;9.558;2023-01-31T11:22:52;100925.97;;;7.75;78.70
5812;BME280;2932;52.400;9.558;2023-01-31T11:25:22;100933.66;;;7.95;77.82
5812;BME280;2932;52.400;9.558;2023-01-31T11:27:52;100937.84;;;7.84;77.92
5812;BME280;2932;52.400;9.558;2023-01-31T11:30:27;100932.44;;;7.70;78.41
5812;BME280;2932;52.400;9.558;2023-01-31T11:32:53;100926.97;;;7.79;78.87
5812;BME280;2932;52.400;9.558;2023-01-31T11:40:38;100916.22;;;7.68;78.64
5812;BME280;2932;52.400;9.558;2023-01-31T11:43:05;100918.34;;;7.72;78.51
5812;BME280;2932;52.400;9.558;2023-01-31T11:45:58;100903.78;;;7.80;78.45
5812;BME280;2932;52.400;9.558;2023-01-31T11:48:44;100902.97;;;7.79;78.21
5812;BME280;2932;52.400;9.558;2023-01-31T11:51:20;100890.13;;;7.57;79.30
5812;BME280;2932;52.400;9.558;2023-01-31T11:53:49;100901.28;;;7.61;79.43
5812;BME280;2932;52.400;9.558;2023-01-31T11:56:19;100883.16;;;7.60;78.94
5812;BME280;2932;52.400;9.558;2023-01-31T11:58:48;100875.25;;;7.58;78.71
5812;BME280;2932;52.400;9.558;2023-01-31T12:01:16;100862.75;;;7.52;79.56
5812;BME280;2932;52.400;9.558;2023-01-31T12:03:51;100876.06;;;7.67;79.37
5812;BME280;2932;52.400;9.558;2023-01-31T12:06:30;100863.88;;;7.60;79.03
5812;BME280;2932;52.400;9.558;2023-01-31T12:08:57;100854.69;;;7.73;78.51
5812;BME280;2932;52.400;9.558;2023-01-31T12:11:29;100866.19;;;7.75;78.54
5812;BME280;2932;52.400;9.558;2023-01-31T12:14:13;100875.00;;;7.94;78.32
5812;BME280;2932;52.400;9.558;2023-01-31T12:16:40;100860.88;;;7.30;79.93
5812;BME280;2932;52.400;9.558;2023-01-31T12:27:00;100821.34;;;7.83;78.99
5812;BME280;2932;52.400;9.558;2023-01-31T12:29:59;100849.81;;;7.70;79.55
5812;BME280;2932;52.400;9.558;2023-01-31T12:39:01;100841.84;;;7.60;80.33
5812;BME280;2932;52.400;9.558;2023-01-31T12:41:35;100862.13;;;7.73;80.18
5812;BME280;2932;52.400;9.558;2023-01-31T12:52:35;100877.66;;;7.51;81.99
5812;BME280;2932;52.400;9.558;2023-01-31T12:58:05;100860.88;;;7.30;83.49
5812;BME280;2932;52.400;9.558;2023-01-31T13:00:44;100851.31;;;7.28;83.18
5812;BME280;2932;52.400;9.558;2023-01-31T13:06:21;100844.34;;;7.22;85.14
5812;BME280;2932;52.400;9.558;2023-01-31T13:11:27;100846.69;;;7.46;84.78
5812;BME280;2932;52.400;9.558;2023-01-31T13:14:00;100856.28;;;7.09;85.68
5812;BME280;2932;52.400;9.558;2023-01-31T13:16:35;100866.00;;;7.63;85.29
5812;BME280;2932;52.400;9.558;2023-01-31T13:19:04;100864.25;;;7.19;85.63
5812;BME280;2932;52.400;9.558;2023-01-31T13:21:35;100841.75;;;7.17;86.34
5812;BME280;2932;52.400;9.558;2023-01-31T13:24:08;100842.81;;;7.47;86.21
5812;BME280;2932;52.400;9.558;2023-01-31T13:26:41;100856.09;;;7.45;86.03
5812;BME280;2932;52.400;9.558;2023-01-31T13:29:18;100847.09;;;7.22;86.76
5812;BME280;2932;52.400;9.558;2023-01-31T13:31:48;100858.22;;;7.08;86.75
5812;BME280;2932;52.400;9.558;2023-01-31T13:34:26;100850.19;;;7.29;86.83
5812;BME280;2932;52.400;9.558;2023-01-31T13:36:57;100838.97;;;7.08;87.72
5812;BME280;2932;52.400;9.558;2023-01-31T13:39:32;100843.56;;;7.30;87.29
5812;BME280;2932;52.400;9.558;2023-01-31T13:42:00;100844.59;;;7.60;87.05
5812;BME280;2932;52.400;9.558;2023-01-31T13:44:25;100844.03;;;7.23;87.35
5812;BME280;2932;52.400;9.558;2023-01-31T13:47:00;100850.41;;;7.41;86.78
5812;BME280;2932;52.400;9.558;2023-01-31T13:49:37;100822.97;;;7.19;87.16
5812;BME280;2932;52.400;9.558;2023-01-31T13:52:11;100826.38;;;7.24;87.13
5812;BME280;2932;52.400;9.558;2023-01-31T13:54:46;100825.47;;;7.46;87.31
5812;BME280;2932;52.400;9.558;2023-01-31T13:57:23;100809.16;;;7.58;85.98
5812;BME280;2932;52.400;9.558;2023-01-31T14:03:06;100817.41;;;7.50;86.77
5812;BME280;2932;52.400;9.558;2023-01-31T14:11:01;100809.25;;;7.36;87.42
5812;BME280;2932;52.400;9.558;2023-01-31T14:15:56;100820.19;;;7.58;86.75
5812;BME280;2932;52.400;9.558;2023-01-31T14:18:38;100800.63;;;7.20;87.61
5812;BME280;2932;52.400;9.558;2023-01-31T14:23:56;100814.19;;;7.74;85.76
5812;BME280;2932;52.400;9.558;2023-01-31T14:27:00;100797.03;;;7.85;84.72
5812;BME280;2932;52.400;9.558;2023-01-31T14:29:30;100789.91;;;7.93;84.84
5812;BME280;2932;52.400;9.558;2023-01-31T14:31:56;100800.09;;;7.66;85.33
5812;BME280;2932;52.400;9.558;2023-01-31T14:34:28;100784.53;;;8.05;84.71
5812;BME280;2932;52.400;9.558;2023-01-31T14:37:32;100791.53;;;7.94;84.10
5812;BME280;2932;52.400;9.558;2023-01-31T14:43:06;100783.59;;;7.92;84.91
5812;BME280;2932;52.400;9.558;2023-01-31T14:59:24;100794.25;;;8.02;84.06
5812;BME280;2932;52.400;9.558;2023-01-31T15:01:51;100805.59;;;8.10;84.07
5812;BME280;2932;52.400;9.558;2023-01-31T15:04:21;100804.47;;;8.19;83.94
5812;BME280;2932;52.400;9.558;2023-01-31T15:06:49;100805.13;;;8.25;83.49
5812;BME280;2932;52.400;9.558;2023-01-31T15:11:54;100812.59;;;8.24;83.88
5812;BME280;2932;52.400;9.558;2023-01-31T15:16:59;100800.72;;;8.41;83.34
5812;BME280;2932;52.400;9.558;2023-01-31T15:19:27;100813.22;;;8.30;84.00
5812;BME280;2932;52.400;9.558;2023-01-31T15:22:03;100797.66;;;8.08;84.45
5812;BME280;2932;52.400;9.558;2023-01-31T15:24:33;100803.66;;;8.27;84.07
5812;BME280;2932;52.400;9.558;2023-01-31T15:27:01;100814.69;;;8.19;84.53
5812;BME280;2932;52.400;9.558;2023-01-31T15:29:33;100809.97;;;8.28;84.59
5812;BME280;2932;52.400;9.558;2023-01-31T15:32:19;100801.19;;;8.52;83.90
5812;BME280;2932;52.400;9.558;2023-01-31T15:34:54;100803.97;;;8.43;84.36
5812;BME280;2932;52.400;9.558;2023-01-31T15:37:25;100801.50;;;8.67;83.71
5812;BME280;2932;52.400;9.558;2023-01-31T15:42:44;100788.16;;;8.78;83.21
5812;BME280;2932;52.400;9.558;2023-01-31T15:47:41;100787.25;;;8.57;83.58
5812;BME280;2932;52.400;9.558;2023-01-31T15:50:18;100784.13;;;8.76;83.00
5812;BME280;2932;52.400;9.558;2023-01-31T15:52:44;100779.97;;;8.52;83.36
5812;BME280;2932;52.400;9.558;2023-01-31T15:55:13;100782.09;;;8.93;82.60
5812;BME280;2932;52.400;9.558;2023-01-31T15:57:58;100786.50;;;8.86;83.11
5812;BME280;2932;52.400;9.558;2023-01-31T16:00:31;100786.00;;;8.84;82.89
5812;BME280;2932;52.400;9.558;2023-01-31T16:02:59;100793.13;;;8.93;82.87